SXS198 EDDF-LTFE
Flight info
| Callsign | SXS198 |
|---|---|
| Flight time | 2h 43m |
| Altitude | 37000 |
| Route | CINDY8S/18 CINDY Z74 LAMPU DCT NOMBO Y161 MAH DCT VAVOR DCT RADIZ DCT GORPA DCT DEVUL DCT REMSO DCT MEDUX UM867 KOGAT DCT DISOR UL608 FSK UN128 AKBUK |
| Aircraft | A320/M-SDE3FGHIRWY/LB1 |
Departure
| Time | 2026-05-08 20:54 |
|---|---|
| Airport | Frankfurt Main Airport (EDDF) |
Arrival
| Time | 2026-05-08 23:38 |
|---|---|
| Airport | Milas Bodrum International Airport (LTFE) |
| Time | Latitude | Longitude | Altitude | Speed | Heading |
|---|---|---|---|---|---|
| 2026-05-08 20:18 | 50.04853 | 8.56941 | 357 ft | 0 kts | 295° |
| 2026-05-08 20:38 | 50.04848 | 8.56958 | 364 ft | 2 kts | 293° |
| 2026-05-08 20:38 | 50.04842 | 8.56981 | 366 ft | 2 kts | 292° |
| 2026-05-08 20:38 | 50.04835 | 8.57005 | 370 ft | 2 kts | 290° |
| 2026-05-08 20:39 | 50.04830 | 8.57029 | 368 ft | 2 kts | 283° |
| 2026-05-08 20:39 | 50.04828 | 8.57054 | 365 ft | 2 kts | 236° |
| 2026-05-08 20:39 | 50.04841 | 8.57068 | 364 ft | 2 kts | 206° |
| 2026-05-08 20:39 | 50.04852 | 8.57076 | 365 ft | 1 kts | 203° |
| 2026-05-08 20:40 | 50.04853 | 8.57077 | 365 ft | 0 kts | 203° |
| 2026-05-08 20:42 | 50.04853 | 8.57076 | 365 ft | 0 kts | 203° |
| 2026-05-08 20:42 | 50.04839 | 8.57067 | 364 ft | 4 kts | 203° |
| 2026-05-08 20:42 | 50.04806 | 8.57045 | 367 ft | 6 kts | 204° |
| 2026-05-08 20:43 | 50.04765 | 8.57015 | 366 ft | 7 kts | 204° |
| 2026-05-08 20:43 | 50.04713 | 8.56979 | 367 ft | 9 kts | 204° |
| 2026-05-08 20:43 | 50.04653 | 8.56936 | 364 ft | 10 kts | 204° |
| 2026-05-08 20:43 | 50.04586 | 8.56904 | 364 ft | 10 kts | 192° |
| 2026-05-08 20:44 | 50.04511 | 8.56879 | 364 ft | 11 kts | 193° |
| 2026-05-08 20:44 | 50.04430 | 8.56851 | 364 ft | 11 kts | 189° |
| 2026-05-08 20:44 | 50.04369 | 8.56835 | 364 ft | 8 kts | 189° |
| 2026-05-08 20:44 | 50.04337 | 8.56825 | 364 ft | 0 kts | 191° |
| 2026-05-08 20:46 | 50.04333 | 8.56824 | 364 ft | 3 kts | 191° |
| 2026-05-08 20:46 | 50.04296 | 8.56812 | 364 ft | 8 kts | 191° |
| 2026-05-08 20:46 | 50.04239 | 8.56747 | 364 ft | 14 kts | 245° |
| 2026-05-08 20:46 | 50.04201 | 8.56592 | 365 ft | 16 kts | 249° |
| 2026-05-08 20:47 | 50.04160 | 8.56420 | 366 ft | 15 kts | 249° |
| 2026-05-08 20:47 | 50.04122 | 8.56258 | 366 ft | 17 kts | 249° |
| 2026-05-08 20:47 | 50.04078 | 8.56076 | 364 ft | 19 kts | 250° |
| 2026-05-08 20:47 | 50.04038 | 8.55907 | 367 ft | 17 kts | 249° |
| 2026-05-08 20:48 | 50.03994 | 8.55723 | 363 ft | 19 kts | 249° |
| 2026-05-08 20:48 | 50.03945 | 8.55519 | 365 ft | 21 kts | 250° |
| 2026-05-08 20:48 | 50.03901 | 8.55336 | 365 ft | 19 kts | 249° |
| 2026-05-08 20:48 | 50.03854 | 8.55138 | 363 ft | 21 kts | 250° |
| 2026-05-08 20:49 | 50.03811 | 8.54955 | 363 ft | 16 kts | 249° |
| 2026-05-08 20:49 | 50.03768 | 8.54780 | 364 ft | 18 kts | 249° |
| 2026-05-08 20:49 | 50.03724 | 8.54594 | 365 ft | 19 kts | 250° |
| 2026-05-08 20:49 | 50.03695 | 8.54471 | 363 ft | 11 kts | 250° |
| 2026-05-08 20:50 | 50.03730 | 8.54376 | 363 ft | 12 kts | 338° |
| 2026-05-08 20:50 | 50.03808 | 8.54311 | 366 ft | 14 kts | 303° |
| 2026-05-08 20:50 | 50.03786 | 8.54166 | 364 ft | 15 kts | 249° |
| 2026-05-08 20:50 | 50.03747 | 8.54001 | 364 ft | 17 kts | 250° |
| 2026-05-08 20:51 | 50.03703 | 8.53818 | 365 ft | 19 kts | 249° |
| 2026-05-08 20:51 | 50.03653 | 8.53612 | 363 ft | 21 kts | 248° |
| 2026-05-08 20:51 | 50.03597 | 8.53389 | 366 ft | 23 kts | 250° |
| 2026-05-08 20:51 | 50.03540 | 8.53146 | 365 ft | 25 kts | 250° |
| 2026-05-08 20:52 | 50.03483 | 8.52903 | 368 ft | 24 kts | 249° |
| 2026-05-08 20:52 | 50.03427 | 8.52703 | 368 ft | 19 kts | 249° |
| 2026-05-08 20:52 | 50.03332 | 8.52595 | 365 ft | 20 kts | 180° |
| 2026-05-08 20:52 | 50.03186 | 8.52596 | 364 ft | 22 kts | 179° |
| 2026-05-08 20:53 | 50.03025 | 8.52597 | 366 ft | 19 kts | 179° |
| 2026-05-08 20:53 | 50.02957 | 8.52598 | 362 ft | 0 kts | 180° |
| 2026-05-08 20:53 | 50.02928 | 8.52598 | 363 ft | 19 kts | 180° |
| 2026-05-08 20:54 | 50.02558 | 8.52603 | 373 ft | 86 kts | 180° |
| 2026-05-08 20:54 | 50.01770 | 8.52610 | 365 ft | 138 kts | 180° |
| 2026-05-08 20:54 | 50.00670 | 8.52621 | 436 ft | 171 kts | 180° |
| 2026-05-08 20:54 | 49.99494 | 8.52623 | 1019 ft | 169 kts | 179° |
| 2026-05-08 20:55 | 49.98320 | 8.52626 | 1612 ft | 168 kts | 176° |
| 2026-05-08 20:55 | 49.97191 | 8.52887 | 2142 ft | 168 kts | 154° |
| 2026-05-08 20:55 | 49.96207 | 8.53982 | 2377 ft | 185 kts | 126° |
| 2026-05-08 20:55 | 49.95508 | 8.55784 | 2540 ft | 208 kts | 118° |
| 2026-05-08 20:56 | 49.94779 | 8.57817 | 2999 ft | 219 kts | 118° |
| 2026-05-08 20:56 | 49.94137 | 8.59983 | 3649 ft | 224 kts | 103° |
| 2026-05-08 20:56 | 49.93951 | 8.62511 | 3955 ft | 248 kts | 94° |
| 2026-05-08 20:56 | 49.93846 | 8.65260 | 4026 ft | 258 kts | 93° |
| 2026-05-08 20:57 | 49.93642 | 8.68038 | 4027 ft | 259 kts | 107° |
| 2026-05-08 20:57 | 49.92790 | 8.70442 | 4031 ft | 260 kts | 133° |
| 2026-05-08 20:57 | 49.91871 | 8.71646 | 4016 ft | 260 kts | 144° |
| 2026-05-08 20:57 | 49.90380 | 8.73280 | 4014 ft | 261 kts | 144° |
| 2026-05-08 20:58 | 49.88519 | 8.75618 | 4013 ft | 260 kts | 129° |
| 2026-05-08 20:58 | 49.87532 | 8.77958 | 4018 ft | 260 kts | 118° |
| 2026-05-08 20:58 | 49.86656 | 8.80408 | 4020 ft | 260 kts | 118° |
| 2026-05-08 20:58 | 49.86072 | 8.82036 | 4018 ft | 260 kts | 118° |
| 2026-05-08 20:59 | 49.85187 | 8.84480 | 4018 ft | 260 kts | 118° |
| 2026-05-08 20:59 | 49.84294 | 8.86942 | 4404 ft | 263 kts | 119° |
| 2026-05-08 20:59 | 49.83388 | 8.89435 | 5247 ft | 267 kts | 120° |
| 2026-05-08 20:59 | 49.82467 | 8.91967 | 5989 ft | 273 kts | 120° |
| 2026-05-08 21:00 | 49.81528 | 8.94553 | 6729 ft | 278 kts | 120° |
| 2026-05-08 21:00 | 49.80573 | 8.97175 | 7464 ft | 281 kts | 120° |
| 2026-05-08 21:00 | 49.79603 | 8.99830 | 8195 ft | 285 kts | 121° |
| 2026-05-08 21:00 | 49.78632 | 9.02492 | 8929 ft | 288 kts | 121° |
| 2026-05-08 21:01 | 49.77639 | 9.05216 | 9674 ft | 292 kts | 121° |
| 2026-05-08 21:01 | 49.76643 | 9.07990 | 10251 ft | 302 kts | 117° |
| 2026-05-08 21:01 | 49.75865 | 9.11152 | 10394 ft | 325 kts | 105° |
| 2026-05-08 21:01 | 49.75320 | 9.14628 | 10630 ft | 342 kts | 105° |
| 2026-05-08 21:02 | 49.74501 | 9.18114 | 11165 ft | 346 kts | 117° |
| 2026-05-08 21:02 | 49.73224 | 9.21290 | 11793 ft | 348 kts | 129° |
| 2026-05-08 21:02 | 49.71642 | 9.24143 | 12438 ft | 350 kts | 132° |
| 2026-05-08 21:02 | 49.70032 | 9.26985 | 13087 ft | 353 kts | 132° |
| 2026-05-08 21:03 | 49.68424 | 9.29823 | 13730 ft | 356 kts | 132° |
| 2026-05-08 21:03 | 49.66789 | 9.32703 | 14313 ft | 358 kts | 132° |
| 2026-05-08 21:03 | 49.65116 | 9.35647 | 14861 ft | 361 kts | 132° |
| 2026-05-08 21:03 | 49.63472 | 9.38544 | 15381 ft | 365 kts | 132° |
| 2026-05-08 21:04 | 49.61669 | 9.41321 | 15892 ft | 367 kts | 142° |
| 2026-05-08 21:04 | 49.59560 | 9.43557 | 16399 ft | 368 kts | 150° |
| 2026-05-08 21:04 | 49.57336 | 9.45585 | 16921 ft | 372 kts | 151° |
| 2026-05-08 21:04 | 49.55131 | 9.47589 | 17429 ft | 375 kts | 151° |
| 2026-05-08 21:05 | 49.52871 | 9.49644 | 17970 ft | 378 kts | 151° |
| 2026-05-08 21:05 | 49.50589 | 9.51721 | 18495 ft | 382 kts | 151° |
| 2026-05-08 21:05 | 49.48296 | 9.53811 | 18975 ft | 384 kts | 151° |
| 2026-05-08 21:05 | 49.45980 | 9.55923 | 19493 ft | 387 kts | 151° |
| 2026-05-08 21:06 | 49.43677 | 9.58025 | 20004 ft | 389 kts | 151° |
| 2026-05-08 21:06 | 49.41329 | 9.60166 | 20526 ft | 392 kts | 151° |
| 2026-05-08 21:06 | 49.38973 | 9.62308 | 21021 ft | 394 kts | 151° |
| 2026-05-08 21:06 | 49.36597 | 9.64463 | 21517 ft | 397 kts | 151° |
| 2026-05-08 21:07 | 49.34264 | 9.66753 | 21981 ft | 401 kts | 144° |
| 2026-05-08 21:07 | 49.32193 | 9.69576 | 22440 ft | 405 kts | 136° |
| 2026-05-08 21:07 | 49.30198 | 9.72648 | 22901 ft | 407 kts | 137° |
| 2026-05-08 21:07 | 49.28191 | 9.75723 | 23353 ft | 410 kts | 137° |
| 2026-05-08 21:08 | 49.26162 | 9.78821 | 23785 ft | 412 kts | 137° |
| 2026-05-08 21:08 | 49.24119 | 9.81928 | 24144 ft | 414 kts | 137° |
| 2026-05-08 21:08 | 49.22057 | 9.85061 | 24500 ft | 417 kts | 137° |
| 2026-05-08 21:08 | 49.19996 | 9.88188 | 24861 ft | 419 kts | 137° |
| 2026-05-08 21:09 | 49.17917 | 9.91336 | 25201 ft | 421 kts | 137° |
| 2026-05-08 21:09 | 49.15865 | 9.94444 | 25540 ft | 423 kts | 137° |
| 2026-05-08 21:09 | 49.13759 | 9.97633 | 25875 ft | 425 kts | 137° |
| 2026-05-08 21:09 | 49.11644 | 10.00831 | 26203 ft | 427 kts | 137° |
| 2026-05-08 21:10 | 49.09520 | 10.04035 | 26524 ft | 429 kts | 137° |
| 2026-05-08 21:10 | 49.07387 | 10.07249 | 26826 ft | 432 kts | 138° |
| 2026-05-08 21:10 | 49.05231 | 10.10472 | 27148 ft | 434 kts | 139° |
| 2026-05-08 21:10 | 49.03069 | 10.13603 | 27458 ft | 435 kts | 140° |
| 2026-05-08 21:11 | 49.00837 | 10.16758 | 27761 ft | 437 kts | 140° |
| 2026-05-08 21:11 | 48.98580 | 10.19908 | 28042 ft | 440 kts | 140° |
| 2026-05-08 21:11 | 48.96302 | 10.23073 | 28338 ft | 443 kts | 140° |
| 2026-05-08 21:11 | 48.94049 | 10.26209 | 28653 ft | 445 kts | 140° |
| 2026-05-08 21:12 | 48.91757 | 10.29421 | 29054 ft | 445 kts | 140° |
| 2026-05-08 21:12 | 48.89496 | 10.32610 | 29495 ft | 444 kts | 140° |
| 2026-05-08 21:12 | 48.87236 | 10.35804 | 29919 ft | 443 kts | 140° |
| 2026-05-08 21:12 | 48.84981 | 10.38989 | 30335 ft | 442 kts | 140° |
| 2026-05-08 21:13 | 48.82726 | 10.42174 | 30676 ft | 442 kts | 140° |
| 2026-05-08 21:13 | 48.80520 | 10.45463 | 30989 ft | 444 kts | 137° |
| 2026-05-08 21:13 | 48.78376 | 10.48853 | 31309 ft | 445 kts | 136° |
| 2026-05-08 21:13 | 48.76265 | 10.52303 | 31610 ft | 446 kts | 135° |
| 2026-05-08 21:14 | 48.74183 | 10.55744 | 31929 ft | 447 kts | 135° |
| 2026-05-08 21:14 | 48.72076 | 10.59210 | 32262 ft | 447 kts | 136° |
| 2026-05-08 21:14 | 48.69950 | 10.62661 | 32590 ft | 447 kts | 136° |
| 2026-05-08 21:14 | 48.67805 | 10.66102 | 32918 ft | 448 kts | 136° |
| 2026-05-08 21:15 | 48.65673 | 10.69494 | 33248 ft | 448 kts | 136° |
| 2026-05-08 21:15 | 48.63521 | 10.72902 | 33577 ft | 448 kts | 136° |
| 2026-05-08 21:15 | 48.61363 | 10.76305 | 33893 ft | 448 kts | 136° |
| 2026-05-08 21:15 | 48.59201 | 10.79711 | 34176 ft | 449 kts | 136° |
| 2026-05-08 21:16 | 48.57036 | 10.83128 | 34419 ft | 449 kts | 136° |
| 2026-05-08 21:16 | 48.54872 | 10.86575 | 34583 ft | 451 kts | 136° |
| 2026-05-08 21:16 | 48.52718 | 10.90021 | 34805 ft | 451 kts | 136° |
| 2026-05-08 21:16 | 48.50593 | 10.93429 | 35071 ft | 451 kts | 136° |
| 2026-05-08 21:17 | 48.48437 | 10.96883 | 35327 ft | 450 kts | 136° |
| 2026-05-08 21:17 | 48.46275 | 11.00309 | 35570 ft | 450 kts | 136° |
| 2026-05-08 21:17 | 48.44103 | 11.03708 | 35811 ft | 449 kts | 137° |
| 2026-05-08 21:17 | 48.41929 | 11.07083 | 36039 ft | 449 kts | 137° |
| 2026-05-08 21:18 | 48.39751 | 11.10451 | 36266 ft | 448 kts | 137° |
| 2026-05-08 21:18 | 48.37578 | 11.13810 | 36489 ft | 448 kts | 137° |
| 2026-05-08 21:18 | 48.35423 | 11.17143 | 36701 ft | 448 kts | 137° |
| 2026-05-08 21:18 | 48.33245 | 11.20516 | 36908 ft | 447 kts | 136° |
| 2026-05-08 21:19 | 48.31077 | 11.23875 | 37061 ft | 447 kts | 137° |
| 2026-05-08 21:19 | 48.26805 | 11.30680 | 37107 ft | 453 kts | 130° |
| 2026-05-08 21:20 | 48.23439 | 11.38764 | 37107 ft | 456 kts | 122° |
| 2026-05-08 21:20 | 48.20277 | 11.46957 | 37106 ft | 456 kts | 122° |
| 2026-05-08 21:21 | 48.17069 | 11.55208 | 37105 ft | 457 kts | 122° |
| 2026-05-08 21:21 | 48.13866 | 11.63426 | 37097 ft | 457 kts | 122° |
| 2026-05-08 21:22 | 48.10655 | 11.71653 | 37100 ft | 457 kts | 122° |
| 2026-05-08 21:22 | 48.07458 | 11.79842 | 37104 ft | 458 kts | 122° |
| 2026-05-08 21:23 | 48.04242 | 11.88062 | 37106 ft | 458 kts | 122° |
| 2026-05-08 21:23 | 48.01004 | 11.96278 | 37088 ft | 458 kts | 123° |
| 2026-05-08 21:24 | 47.97762 | 12.04482 | 37090 ft | 458 kts | 122° |
| 2026-05-08 21:24 | 47.94499 | 12.12609 | 37096 ft | 457 kts | 127° |
| 2026-05-08 21:25 | 47.90211 | 12.19498 | 37095 ft | 451 kts | 143° |
| 2026-05-08 21:25 | 47.85394 | 12.25513 | 37096 ft | 451 kts | 143° |
| 2026-05-08 21:26 | 47.80607 | 12.31498 | 37100 ft | 452 kts | 143° |
| 2026-05-08 21:26 | 47.75772 | 12.37543 | 37085 ft | 452 kts | 143° |
| 2026-05-08 21:27 | 47.70961 | 12.43537 | 37090 ft | 453 kts | 143° |
| 2026-05-08 21:27 | 47.66117 | 12.49543 | 37094 ft | 453 kts | 143° |
| 2026-05-08 21:28 | 47.61430 | 12.55755 | 37098 ft | 456 kts | 135° |
| 2026-05-08 21:28 | 47.57128 | 12.62636 | 37103 ft | 456 kts | 135° |
| 2026-05-08 21:29 | 47.52815 | 12.69531 | 37104 ft | 455 kts | 135° |
| 2026-05-08 21:29 | 47.48507 | 12.76398 | 37096 ft | 456 kts | 135° |
| 2026-05-08 21:30 | 47.44175 | 12.83280 | 37107 ft | 456 kts | 135° |
| 2026-05-08 21:30 | 47.39837 | 12.90138 | 37110 ft | 456 kts | 136° |
| 2026-05-08 21:31 | 47.35519 | 12.96951 | 37119 ft | 456 kts | 136° |
| 2026-05-08 21:31 | 47.31173 | 13.03791 | 37126 ft | 455 kts | 136° |
| 2026-05-08 21:32 | 47.26834 | 13.10604 | 37127 ft | 456 kts | 136° |
| 2026-05-08 21:32 | 47.22490 | 13.17414 | 37114 ft | 455 kts | 136° |
| 2026-05-08 21:33 | 47.18152 | 13.24193 | 37121 ft | 456 kts | 136° |
| 2026-05-08 21:33 | 47.13801 | 13.30960 | 37119 ft | 456 kts | 136° |
| 2026-05-08 21:34 | 47.09434 | 13.37735 | 37119 ft | 456 kts | 136° |
| 2026-05-08 21:34 | 47.05079 | 13.44495 | 37129 ft | 455 kts | 136° |
| 2026-05-08 21:35 | 47.00737 | 13.51221 | 37122 ft | 455 kts | 136° |
| 2026-05-08 21:35 | 46.96359 | 13.57970 | 37115 ft | 456 kts | 136° |
| 2026-05-08 21:36 | 46.92009 | 13.64664 | 37112 ft | 456 kts | 136° |
| 2026-05-08 21:36 | 46.87629 | 13.71398 | 37118 ft | 456 kts | 136° |
| 2026-05-08 21:37 | 46.83249 | 13.78100 | 37113 ft | 456 kts | 136° |
| 2026-05-08 21:37 | 46.78869 | 13.84785 | 37105 ft | 455 kts | 136° |
| 2026-05-08 21:38 | 46.74480 | 13.91466 | 37107 ft | 455 kts | 137° |
| 2026-05-08 21:38 | 46.70114 | 13.98098 | 37093 ft | 456 kts | 137° |
| 2026-05-08 21:39 | 46.65715 | 14.04770 | 37100 ft | 455 kts | 137° |
| 2026-05-08 21:39 | 46.62065 | 14.10292 | 37116 ft | 455 kts | 137° |
| 2026-05-08 21:40 | 46.57666 | 14.16929 | 37119 ft | 455 kts | 137° |
| 2026-05-08 21:40 | 46.53245 | 14.23570 | 37118 ft | 455 kts | 137° |
| 2026-05-08 21:41 | 46.46663 | 14.33449 | 37098 ft | 455 kts | 137° |
| 2026-05-08 21:41 | 46.42255 | 14.40034 | 37094 ft | 455 kts | 137° |
| 2026-05-08 21:42 | 46.37830 | 14.46637 | 37102 ft | 456 kts | 137° |
| 2026-05-08 21:42 | 46.33421 | 14.53210 | 37107 ft | 456 kts | 137° |
| 2026-05-08 21:43 | 46.28989 | 14.59789 | 37119 ft | 456 kts | 137° |
| 2026-05-08 21:43 | 46.24554 | 14.66351 | 37126 ft | 455 kts | 137° |
| 2026-05-08 21:44 | 46.20115 | 14.72895 | 37106 ft | 456 kts | 137° |
| 2026-05-08 21:44 | 46.15686 | 14.79422 | 37105 ft | 457 kts | 137° |
| 2026-05-08 21:45 | 46.11253 | 14.85949 | 37099 ft | 458 kts | 137° |
| 2026-05-08 21:45 | 46.06777 | 14.92512 | 37115 ft | 457 kts | 137° |
| 2026-05-08 21:46 | 46.02309 | 14.99043 | 37123 ft | 457 kts | 138° |
| 2026-05-08 21:46 | 45.97865 | 15.05527 | 37118 ft | 457 kts | 138° |
| 2026-05-08 21:47 | 45.93396 | 15.12033 | 37104 ft | 457 kts | 138° |
| 2026-05-08 21:47 | 45.88914 | 15.18544 | 37094 ft | 458 kts | 138° |
| 2026-05-08 21:48 | 45.84432 | 15.25041 | 37106 ft | 458 kts | 138° |
| 2026-05-08 21:48 | 45.79965 | 15.31489 | 37115 ft | 458 kts | 138° |
| 2026-05-08 21:49 | 45.75638 | 15.38190 | 37123 ft | 460 kts | 133° |
| 2026-05-08 21:49 | 45.71549 | 15.45254 | 37115 ft | 460 kts | 133° |
| 2026-05-08 21:50 | 45.67469 | 15.52267 | 37113 ft | 460 kts | 133° |
| 2026-05-08 21:50 | 45.63360 | 15.59297 | 37107 ft | 460 kts | 133° |
| 2026-05-08 21:51 | 45.59246 | 15.66327 | 37098 ft | 460 kts | 133° |
| 2026-05-08 21:51 | 45.55148 | 15.73310 | 37106 ft | 460 kts | 133° |
| 2026-05-08 21:52 | 45.51041 | 15.80285 | 37101 ft | 460 kts | 133° |
| 2026-05-08 21:52 | 45.46929 | 15.87250 | 37104 ft | 459 kts | 133° |
| 2026-05-08 21:53 | 45.42808 | 15.94227 | 37096 ft | 459 kts | 133° |
| 2026-05-08 21:53 | 45.38699 | 16.01174 | 37089 ft | 459 kts | 133° |
| 2026-05-08 21:54 | 45.34592 | 16.08088 | 37093 ft | 459 kts | 133° |
| 2026-05-08 21:54 | 45.30461 | 16.15023 | 37095 ft | 459 kts | 134° |
| 2026-05-08 21:55 | 45.26319 | 16.21962 | 37103 ft | 459 kts | 133° |
| 2026-05-08 21:56 | 45.20144 | 16.32287 | 37104 ft | 458 kts | 134° |
| 2026-05-08 21:56 | 45.15993 | 16.39194 | 37082 ft | 459 kts | 134° |
| 2026-05-08 21:57 | 45.11836 | 16.46061 | 37091 ft | 459 kts | 134° |
| 2026-05-08 21:57 | 45.07612 | 16.52797 | 37092 ft | 459 kts | 135° |
| 2026-05-08 21:58 | 45.03331 | 16.59504 | 37101 ft | 459 kts | 135° |
| 2026-05-08 21:58 | 44.99059 | 16.66212 | 37101 ft | 459 kts | 135° |
| 2026-05-08 21:59 | 44.94818 | 16.72900 | 37107 ft | 459 kts | 135° |
| 2026-05-08 21:59 | 44.90556 | 16.79613 | 37099 ft | 459 kts | 135° |
| 2026-05-08 22:00 | 44.86285 | 16.86312 | 37099 ft | 460 kts | 135° |
| 2026-05-08 22:00 | 44.81987 | 16.93019 | 37101 ft | 460 kts | 135° |
| 2026-05-08 22:01 | 44.77693 | 16.99724 | 37097 ft | 461 kts | 135° |
| 2026-05-08 22:01 | 44.73387 | 17.06429 | 37101 ft | 460 kts | 135° |
| 2026-05-08 22:02 | 44.69104 | 17.13069 | 37107 ft | 461 kts | 135° |
| 2026-05-08 22:02 | 44.64783 | 17.19759 | 37094 ft | 461 kts | 135° |
| 2026-05-08 22:03 | 44.60490 | 17.26395 | 37092 ft | 461 kts | 135° |
| 2026-05-08 22:03 | 44.56180 | 17.33039 | 37104 ft | 462 kts | 135° |
| 2026-05-08 22:04 | 44.51843 | 17.39694 | 37110 ft | 462 kts | 135° |
| 2026-05-08 22:04 | 44.47495 | 17.46369 | 37116 ft | 462 kts | 135° |
| 2026-05-08 22:05 | 44.43179 | 17.52984 | 37108 ft | 462 kts | 135° |
| 2026-05-08 22:05 | 44.38835 | 17.59617 | 37111 ft | 462 kts | 136° |
| 2026-05-08 22:06 | 44.34475 | 17.66250 | 37110 ft | 463 kts | 136° |
| 2026-05-08 22:06 | 44.30132 | 17.72859 | 37113 ft | 464 kts | 136° |
| 2026-05-08 22:07 | 44.25744 | 17.79516 | 37101 ft | 464 kts | 136° |
| 2026-05-08 22:07 | 44.21361 | 17.86144 | 37110 ft | 464 kts | 136° |
| 2026-05-08 22:08 | 44.16981 | 17.92750 | 37115 ft | 463 kts | 136° |
| 2026-05-08 22:08 | 44.12624 | 17.99296 | 37082 ft | 464 kts | 136° |
| 2026-05-08 22:09 | 44.08208 | 18.05918 | 37059 ft | 465 kts | 136° |
| 2026-05-08 22:09 | 44.03831 | 18.12493 | 37082 ft | 466 kts | 136° |
| 2026-05-08 22:10 | 43.99414 | 18.19092 | 37093 ft | 466 kts | 136° |
| 2026-05-08 22:10 | 43.94989 | 18.25684 | 37095 ft | 465 kts | 136° |
| 2026-05-08 22:11 | 43.90566 | 18.32268 | 37094 ft | 466 kts | 136° |
| 2026-05-08 22:11 | 43.86177 | 18.38797 | 37098 ft | 467 kts | 136° |
| 2026-05-08 22:12 | 43.81723 | 18.45386 | 37096 ft | 470 kts | 136° |
| 2026-05-08 22:12 | 43.77233 | 18.52000 | 37089 ft | 471 kts | 136° |
| 2026-05-08 22:13 | 43.72746 | 18.58618 | 37090 ft | 472 kts | 136° |
| 2026-05-08 22:13 | 43.68251 | 18.65244 | 37109 ft | 471 kts | 136° |
| 2026-05-08 22:14 | 43.63753 | 18.71840 | 37113 ft | 471 kts | 136° |
| 2026-05-08 22:14 | 43.59273 | 18.78390 | 37089 ft | 472 kts | 136° |
| 2026-05-08 22:15 | 43.54718 | 18.85037 | 37093 ft | 480 kts | 136° |
| 2026-05-08 22:15 | 43.50096 | 18.91759 | 37090 ft | 485 kts | 136° |
| 2026-05-08 22:16 | 43.45479 | 18.98501 | 37085 ft | 486 kts | 136° |
| 2026-05-08 22:16 | 43.40909 | 19.05321 | 37090 ft | 486 kts | 135° |
| 2026-05-08 22:17 | 43.36332 | 19.12187 | 37063 ft | 486 kts | 135° |
| 2026-05-08 22:17 | 43.31752 | 19.18988 | 37077 ft | 487 kts | 136° |
| 2026-05-08 22:18 | 43.27132 | 19.25806 | 37090 ft | 488 kts | 136° |
| 2026-05-08 22:18 | 43.22505 | 19.32631 | 37102 ft | 488 kts | 136° |
| 2026-05-08 22:19 | 43.17894 | 19.39426 | 37079 ft | 479 kts | 136° |
| 2026-05-08 22:19 | 43.13395 | 19.46030 | 37085 ft | 475 kts | 136° |
| 2026-05-08 22:20 | 43.08916 | 19.52595 | 37086 ft | 469 kts | 136° |
| 2026-05-08 22:20 | 43.04451 | 19.59116 | 37086 ft | 469 kts | 136° |
| 2026-05-08 22:21 | 43.00024 | 19.65587 | 37087 ft | 468 kts | 136° |
| 2026-05-08 22:21 | 42.95568 | 19.72086 | 37095 ft | 469 kts | 136° |
| 2026-05-08 22:22 | 42.91844 | 19.77502 | 37101 ft | 469 kts | 136° |
| 2026-05-08 22:22 | 42.86637 | 19.85043 | 37104 ft | 468 kts | 136° |
| 2026-05-08 22:23 | 42.82910 | 19.90434 | 37092 ft | 469 kts | 136° |
| 2026-05-08 22:23 | 42.78415 | 19.96917 | 37092 ft | 469 kts | 136° |
| 2026-05-08 22:24 | 42.73936 | 20.03394 | 37092 ft | 470 kts | 135° |
| 2026-05-08 22:24 | 42.69714 | 20.10164 | 37107 ft | 472 kts | 131° |
| 2026-05-08 22:25 | 42.65627 | 20.17159 | 37101 ft | 472 kts | 131° |
| 2026-05-08 22:25 | 42.61534 | 20.24066 | 37104 ft | 470 kts | 132° |
| 2026-05-08 22:26 | 42.57364 | 20.30925 | 37085 ft | 471 kts | 132° |
| 2026-05-08 22:26 | 42.53156 | 20.37769 | 37088 ft | 472 kts | 132° |
| 2026-05-08 22:27 | 42.48957 | 20.44606 | 37096 ft | 472 kts | 132° |
| 2026-05-08 22:27 | 42.44766 | 20.51432 | 37098 ft | 472 kts | 132° |
| 2026-05-08 22:28 | 42.40568 | 20.58267 | 37103 ft | 471 kts | 132° |
| 2026-05-08 22:28 | 42.36386 | 20.65081 | 37103 ft | 470 kts | 132° |
| 2026-05-08 22:29 | 42.32213 | 20.71856 | 37099 ft | 470 kts | 133° |
| 2026-05-08 22:29 | 42.28000 | 20.78649 | 37063 ft | 471 kts | 133° |
| 2026-05-08 22:30 | 42.23774 | 20.85444 | 37078 ft | 474 kts | 132° |
| 2026-05-08 22:30 | 42.19485 | 20.92340 | 37086 ft | 482 kts | 132° |
| 2026-05-08 22:31 | 42.15161 | 20.99277 | 37082 ft | 488 kts | 132° |
| 2026-05-08 22:31 | 42.10843 | 21.06378 | 37079 ft | 489 kts | 126° |
| 2026-05-08 22:32 | 42.07079 | 21.13969 | 37083 ft | 486 kts | 126° |
| 2026-05-08 22:32 | 42.03357 | 21.21485 | 37088 ft | 484 kts | 126° |
| 2026-05-08 22:33 | 41.99609 | 21.29041 | 37075 ft | 485 kts | 126° |
| 2026-05-08 22:33 | 41.95863 | 21.36571 | 37077 ft | 487 kts | 126° |
| 2026-05-08 22:34 | 41.92080 | 21.44127 | 37081 ft | 487 kts | 126° |
| 2026-05-08 22:34 | 41.88279 | 21.51689 | 37089 ft | 488 kts | 126° |
| 2026-05-08 22:35 | 41.84501 | 21.59212 | 37121 ft | 488 kts | 126° |
| 2026-05-08 22:35 | 41.80706 | 21.66764 | 37121 ft | 488 kts | 126° |
| 2026-05-08 22:36 | 41.76891 | 21.74332 | 37121 ft | 489 kts | 126° |
| 2026-05-08 22:36 | 41.73070 | 21.81879 | 37106 ft | 489 kts | 126° |
| 2026-05-08 22:37 | 41.69226 | 21.89438 | 37067 ft | 491 kts | 126° |
| 2026-05-08 22:37 | 41.65393 | 21.96971 | 37058 ft | 494 kts | 126° |
| 2026-05-08 22:38 | 41.61503 | 22.04599 | 37066 ft | 496 kts | 126° |
| 2026-05-08 22:38 | 41.57604 | 22.12232 | 37075 ft | 498 kts | 126° |
| 2026-05-08 22:39 | 41.53694 | 22.19860 | 37097 ft | 498 kts | 126° |
| 2026-05-08 22:39 | 41.49796 | 22.27451 | 37106 ft | 499 kts | 126° |
| 2026-05-08 22:40 | 41.45849 | 22.35129 | 37110 ft | 499 kts | 126° |
| 2026-05-08 22:40 | 41.41927 | 22.42729 | 37116 ft | 499 kts | 126° |
| 2026-05-08 22:41 | 41.37998 | 22.50323 | 37130 ft | 498 kts | 126° |
| 2026-05-08 22:41 | 41.34054 | 22.57927 | 37102 ft | 499 kts | 127° |
| 2026-05-08 22:42 | 41.30100 | 22.65523 | 37101 ft | 500 kts | 127° |
| 2026-05-08 22:42 | 41.26114 | 22.73153 | 37107 ft | 501 kts | 127° |
| 2026-05-08 22:43 | 41.21836 | 22.80379 | 37122 ft | 499 kts | 132° |
| 2026-05-08 22:43 | 41.17458 | 22.87561 | 37129 ft | 500 kts | 127° |
| 2026-05-08 22:44 | 41.13567 | 22.95079 | 37107 ft | 487 kts | 126° |
| 2026-05-08 22:44 | 41.09821 | 23.02490 | 37111 ft | 485 kts | 126° |
| 2026-05-08 22:45 | 41.06039 | 23.09900 | 37113 ft | 485 kts | 126° |
| 2026-05-08 22:45 | 41.02233 | 23.17275 | 37110 ft | 487 kts | 126° |
| 2026-05-08 22:46 | 40.98375 | 23.24720 | 37105 ft | 489 kts | 126° |
| 2026-05-08 22:46 | 40.94517 | 23.32155 | 37108 ft | 490 kts | 126° |
| 2026-05-08 22:47 | 40.90672 | 23.39560 | 37109 ft | 490 kts | 126° |
| 2026-05-08 22:47 | 40.86810 | 23.46981 | 37122 ft | 490 kts | 126° |
| 2026-05-08 22:48 | 40.82931 | 23.54405 | 37120 ft | 489 kts | 126° |
| 2026-05-08 22:48 | 40.79087 | 23.61745 | 37121 ft | 488 kts | 126° |
| 2026-05-08 22:49 | 40.75210 | 23.69130 | 37117 ft | 488 kts | 127° |
| 2026-05-08 22:49 | 40.69404 | 23.80159 | 37093 ft | 488 kts | 127° |
| 2026-05-08 22:50 | 40.65546 | 23.87480 | 37084 ft | 490 kts | 127° |
| 2026-05-08 22:50 | 40.61644 | 23.94850 | 37081 ft | 491 kts | 127° |
| 2026-05-08 22:51 | 40.57718 | 24.02249 | 37085 ft | 492 kts | 127° |
| 2026-05-08 22:51 | 40.53816 | 24.09606 | 37094 ft | 492 kts | 127° |
| 2026-05-08 22:52 | 40.49879 | 24.17005 | 37101 ft | 492 kts | 127° |
| 2026-05-08 22:52 | 40.45959 | 24.24323 | 37105 ft | 492 kts | 127° |
| 2026-05-08 22:53 | 40.42011 | 24.31680 | 37100 ft | 492 kts | 127° |
| 2026-05-08 22:53 | 40.38064 | 24.39023 | 37103 ft | 492 kts | 127° |
| 2026-05-08 22:54 | 40.34134 | 24.46333 | 37090 ft | 491 kts | 127° |
| 2026-05-08 22:54 | 40.30179 | 24.53673 | 37071 ft | 492 kts | 127° |
| 2026-05-08 22:55 | 40.26240 | 24.60979 | 37070 ft | 493 kts | 127° |
| 2026-05-08 22:55 | 40.22261 | 24.68332 | 37075 ft | 494 kts | 127° |
| 2026-05-08 22:56 | 40.18280 | 24.75661 | 37082 ft | 496 kts | 127° |
| 2026-05-08 22:56 | 40.14246 | 24.83066 | 37078 ft | 506 kts | 127° |
| 2026-05-08 22:57 | 40.10111 | 24.90624 | 37080 ft | 512 kts | 127° |
| 2026-05-08 22:57 | 40.05988 | 24.98164 | 37069 ft | 513 kts | 127° |
| 2026-05-08 22:58 | 40.01840 | 25.05744 | 37059 ft | 509 kts | 127° |
| 2026-05-08 22:58 | 39.97726 | 25.13236 | 37057 ft | 505 kts | 128° |
| 2026-05-08 22:59 | 39.93642 | 25.20651 | 37063 ft | 505 kts | 128° |
| 2026-05-08 22:59 | 39.88887 | 25.27219 | 37058 ft | 490 kts | 142° |
| 2026-05-08 23:00 | 39.83753 | 25.33024 | 37083 ft | 487 kts | 142° |
| 2026-05-08 23:00 | 39.78678 | 25.38791 | 37084 ft | 487 kts | 142° |
| 2026-05-08 23:01 | 39.73563 | 25.44598 | 37084 ft | 487 kts | 142° |
| 2026-05-08 23:01 | 39.68443 | 25.50385 | 37084 ft | 489 kts | 142° |
| 2026-05-08 23:02 | 39.63294 | 25.56197 | 37092 ft | 491 kts | 142° |
| 2026-05-08 23:02 | 39.58159 | 25.61981 | 37099 ft | 491 kts | 142° |
| 2026-05-08 23:03 | 39.52982 | 25.67796 | 37099 ft | 491 kts | 143° |
| 2026-05-08 23:03 | 39.47803 | 25.73595 | 37111 ft | 492 kts | 143° |
| 2026-05-08 23:04 | 39.42643 | 25.79367 | 37105 ft | 492 kts | 143° |
| 2026-05-08 23:04 | 39.37454 | 25.85163 | 37105 ft | 493 kts | 143° |
| 2026-05-08 23:05 | 39.32250 | 25.90962 | 37119 ft | 494 kts | 143° |
| 2026-05-08 23:05 | 39.27899 | 25.95788 | 37122 ft | 494 kts | 143° |
| 2026-05-08 23:06 | 39.22654 | 26.01466 | 37138 ft | 494 kts | 144° |
| 2026-05-08 23:06 | 39.17338 | 26.07116 | 37142 ft | 493 kts | 144° |
| 2026-05-08 23:07 | 39.12044 | 26.12752 | 37108 ft | 494 kts | 145° |
| 2026-05-08 23:07 | 39.06781 | 26.18391 | 37112 ft | 495 kts | 145° |
| 2026-05-08 23:08 | 39.01473 | 26.24076 | 37117 ft | 496 kts | 145° |
| 2026-05-08 23:08 | 38.96183 | 26.29702 | 37113 ft | 496 kts | 145° |
| 2026-05-08 23:09 | 38.90843 | 26.35364 | 37109 ft | 496 kts | 145° |
| 2026-05-08 23:09 | 38.85526 | 26.40996 | 37105 ft | 497 kts | 146° |
| 2026-05-08 23:10 | 38.80200 | 26.46707 | 36739 ft | 500 kts | 144° |
| 2026-05-08 23:10 | 38.77581 | 26.49630 | 36285 ft | 501 kts | 144° |
| 2026-05-08 23:10 | 38.74970 | 26.52595 | 35836 ft | 502 kts | 143° |
| 2026-05-08 23:11 | 38.72357 | 26.55581 | 35396 ft | 503 kts | 144° |
| 2026-05-08 23:11 | 38.69765 | 26.58533 | 34969 ft | 503 kts | 144° |
| 2026-05-08 23:11 | 38.67138 | 26.61507 | 34538 ft | 501 kts | 144° |
| 2026-05-08 23:11 | 38.64525 | 26.64440 | 34112 ft | 499 kts | 145° |
| 2026-05-08 23:12 | 38.61914 | 26.67347 | 33629 ft | 495 kts | 145° |
| 2026-05-08 23:12 | 38.59314 | 26.70227 | 33149 ft | 492 kts | 145° |
| 2026-05-08 23:12 | 38.56755 | 26.73060 | 32631 ft | 488 kts | 145° |
| 2026-05-08 23:12 | 38.54200 | 26.75894 | 32187 ft | 485 kts | 145° |
| 2026-05-08 23:13 | 38.51667 | 26.78706 | 31734 ft | 481 kts | 145° |
| 2026-05-08 23:13 | 38.49137 | 26.81514 | 31285 ft | 478 kts | 145° |
| 2026-05-08 23:13 | 38.46626 | 26.84297 | 30845 ft | 475 kts | 145° |
| 2026-05-08 23:13 | 38.44139 | 26.87052 | 30414 ft | 472 kts | 145° |
| 2026-05-08 23:14 | 38.41690 | 26.89766 | 29969 ft | 469 kts | 145° |
| 2026-05-08 23:14 | 38.39230 | 26.92490 | 29441 ft | 466 kts | 145° |
| 2026-05-08 23:14 | 38.36776 | 26.95202 | 28956 ft | 462 kts | 145° |
| 2026-05-08 23:14 | 38.34346 | 26.97880 | 28485 ft | 459 kts | 145° |
| 2026-05-08 23:15 | 38.31859 | 27.00309 | 28014 ft | 450 kts | 154° |
| 2026-05-08 23:15 | 38.29149 | 27.02183 | 27507 ft | 437 kts | 164° |
| 2026-05-08 23:15 | 38.26359 | 27.03724 | 27052 ft | 434 kts | 164° |
| 2026-05-08 23:15 | 38.23594 | 27.05251 | 26624 ft | 431 kts | 163° |
| 2026-05-08 23:16 | 38.20845 | 27.06775 | 26222 ft | 428 kts | 163° |
| 2026-05-08 23:16 | 38.18127 | 27.08287 | 25831 ft | 425 kts | 163° |
| 2026-05-08 23:16 | 38.15420 | 27.09793 | 25443 ft | 422 kts | 163° |
| 2026-05-08 23:16 | 38.12740 | 27.11281 | 25065 ft | 419 kts | 163° |
| 2026-05-08 23:17 | 38.10105 | 27.12740 | 24691 ft | 416 kts | 162° |
| 2026-05-08 23:17 | 38.07463 | 27.14202 | 24321 ft | 413 kts | 162° |
| 2026-05-08 23:17 | 38.04828 | 27.15657 | 23944 ft | 410 kts | 163° |
| 2026-05-08 23:17 | 38.02218 | 27.17097 | 23553 ft | 406 kts | 163° |
| 2026-05-08 23:18 | 37.99654 | 27.18509 | 23108 ft | 403 kts | 163° |
| 2026-05-08 23:18 | 37.97075 | 27.19928 | 22691 ft | 399 kts | 163° |
| 2026-05-08 23:18 | 37.94530 | 27.21330 | 22274 ft | 396 kts | 163° |
| 2026-05-08 23:18 | 37.92013 | 27.22720 | 21849 ft | 393 kts | 163° |
| 2026-05-08 23:19 | 37.89536 | 27.24084 | 21397 ft | 391 kts | 163° |
| 2026-05-08 23:19 | 37.87043 | 27.25454 | 20926 ft | 389 kts | 162° |
| 2026-05-08 23:19 | 37.84562 | 27.26815 | 20491 ft | 387 kts | 162° |
| 2026-05-08 23:19 | 37.82095 | 27.28167 | 20054 ft | 385 kts | 162° |
| 2026-05-08 23:20 | 37.79641 | 27.29509 | 19610 ft | 383 kts | 162° |
| 2026-05-08 23:20 | 37.77195 | 27.30847 | 19184 ft | 380 kts | 162° |
| 2026-05-08 23:20 | 37.74794 | 27.32159 | 18776 ft | 378 kts | 162° |
| 2026-05-08 23:20 | 37.72386 | 27.33472 | 18354 ft | 376 kts | 161° |
| 2026-05-08 23:21 | 37.69986 | 27.34783 | 17868 ft | 373 kts | 161° |
| 2026-05-08 23:21 | 37.67604 | 27.36086 | 17387 ft | 372 kts | 161° |
| 2026-05-08 23:21 | 37.65237 | 27.37380 | 16931 ft | 369 kts | 161° |
| 2026-05-08 23:21 | 37.62889 | 27.38660 | 16472 ft | 366 kts | 161° |
| 2026-05-08 23:22 | 37.60559 | 27.39951 | 16010 ft | 364 kts | 161° |
| 2026-05-08 23:22 | 37.58269 | 27.41257 | 15582 ft | 362 kts | 160° |
| 2026-05-08 23:22 | 37.55979 | 27.42583 | 15129 ft | 360 kts | 160° |
| 2026-05-08 23:22 | 37.53712 | 27.43900 | 14694 ft | 358 kts | 160° |
| 2026-05-08 23:23 | 37.51452 | 27.45212 | 14276 ft | 356 kts | 160° |
| 2026-05-08 23:23 | 37.49238 | 27.46608 | 13850 ft | 357 kts | 154° |
| 2026-05-08 23:23 | 37.47103 | 27.48190 | 13369 ft | 355 kts | 153° |
| 2026-05-08 23:23 | 37.44980 | 27.49752 | 12896 ft | 352 kts | 154° |
| 2026-05-08 23:24 | 37.42864 | 27.51302 | 12474 ft | 350 kts | 153° |
| 2026-05-08 23:24 | 37.40777 | 27.52829 | 12120 ft | 345 kts | 153° |
| 2026-05-08 23:24 | 37.38737 | 27.54319 | 11729 ft | 341 kts | 153° |
| 2026-05-08 23:24 | 37.36705 | 27.55803 | 11341 ft | 339 kts | 153° |
| 2026-05-08 23:25 | 37.34667 | 27.57292 | 10954 ft | 337 kts | 153° |
| 2026-05-08 23:25 | 37.32645 | 27.58769 | 10556 ft | 334 kts | 153° |
| 2026-05-08 23:25 | 37.30641 | 27.60231 | 10178 ft | 327 kts | 153° |
| 2026-05-08 23:25 | 37.28733 | 27.61622 | 9779 ft | 314 kts | 153° |
| 2026-05-08 23:26 | 37.26991 | 27.63210 | 9364 ft | 305 kts | 138° |
| 2026-05-08 23:26 | 37.25661 | 27.65277 | 8917 ft | 301 kts | 122° |
| 2026-05-08 23:26 | 37.24837 | 27.67647 | 8525 ft | 299 kts | 107° |
| 2026-05-08 23:26 | 37.24248 | 27.70178 | 8223 ft | 302 kts | 108° |
| 2026-05-08 23:27 | 37.23653 | 27.72687 | 7920 ft | 297 kts | 108° |
| 2026-05-08 23:27 | 37.23070 | 27.75119 | 7622 ft | 284 kts | 108° |
| 2026-05-08 23:27 | 37.22510 | 27.77447 | 7328 ft | 273 kts | 108° |
| 2026-05-08 23:27 | 37.21976 | 27.79666 | 7051 ft | 263 kts | 108° |
| 2026-05-08 23:28 | 37.21452 | 27.81841 | 6857 ft | 259 kts | 108° |
| 2026-05-08 23:28 | 37.20929 | 27.84006 | 6708 ft | 259 kts | 109° |
| 2026-05-08 23:28 | 37.20409 | 27.86163 | 6569 ft | 257 kts | 108° |
| 2026-05-08 23:28 | 37.19891 | 27.88305 | 6454 ft | 255 kts | 109° |
| 2026-05-08 23:29 | 37.19384 | 27.90405 | 6348 ft | 248 kts | 109° |
| 2026-05-08 23:29 | 37.18895 | 27.92435 | 6240 ft | 238 kts | 109° |
| 2026-05-08 23:29 | 37.18419 | 27.94407 | 6141 ft | 235 kts | 109° |
| 2026-05-08 23:29 | 37.17948 | 27.96361 | 6042 ft | 233 kts | 109° |
| 2026-05-08 23:30 | 37.17483 | 27.98303 | 5935 ft | 232 kts | 109° |
| 2026-05-08 23:30 | 37.17026 | 28.00215 | 5837 ft | 232 kts | 109° |
| 2026-05-08 23:30 | 37.16720 | 28.02203 | 5738 ft | 233 kts | 84° |
| 2026-05-08 23:30 | 37.17363 | 28.04031 | 5643 ft | 232 kts | 42° |
| 2026-05-08 23:31 | 37.18767 | 28.04879 | 5578 ft | 223 kts | 0° |
| 2026-05-08 23:31 | 37.20188 | 28.04480 | 5488 ft | 209 kts | 324° |
| 2026-05-08 23:31 | 37.21118 | 28.03168 | 5366 ft | 199 kts | 290° |
| 2026-05-08 23:31 | 37.21288 | 28.01496 | 5282 ft | 194 kts | 258° |
| 2026-05-08 23:32 | 37.20913 | 27.99886 | 5180 ft | 194 kts | 251° |
| 2026-05-08 23:32 | 37.20508 | 27.98275 | 5094 ft | 194 kts | 252° |
| 2026-05-08 23:32 | 37.20107 | 27.96670 | 5012 ft | 190 kts | 252° |
| 2026-05-08 23:32 | 37.19713 | 27.95098 | 4934 ft | 189 kts | 251° |
| 2026-05-08 23:33 | 37.19324 | 27.93548 | 4843 ft | 180 kts | 251° |
| 2026-05-08 23:33 | 37.19081 | 27.92063 | 4799 ft | 176 kts | 269° |
| 2026-05-08 23:33 | 37.19333 | 27.90561 | 4646 ft | 177 kts | 283° |
| 2026-05-08 23:33 | 37.19694 | 27.89083 | 4362 ft | 176 kts | 284° |
| 2026-05-08 23:34 | 37.20051 | 27.87614 | 4073 ft | 175 kts | 284° |
| 2026-05-08 23:34 | 37.20397 | 27.86183 | 3780 ft | 165 kts | 284° |
| 2026-05-08 23:34 | 37.20720 | 27.84843 | 3510 ft | 160 kts | 284° |
| 2026-05-08 23:34 | 37.21045 | 27.83490 | 3236 ft | 160 kts | 284° |
| 2026-05-08 23:35 | 37.21361 | 27.82176 | 2966 ft | 159 kts | 284° |
| 2026-05-08 23:35 | 37.21681 | 27.80846 | 2692 ft | 158 kts | 285° |
| 2026-05-08 23:35 | 37.21999 | 27.79521 | 2415 ft | 158 kts | 286° |
| 2026-05-08 23:35 | 37.22315 | 27.78206 | 2148 ft | 158 kts | 287° |
| 2026-05-08 23:36 | 37.22633 | 27.76882 | 1876 ft | 158 kts | 287° |
| 2026-05-08 23:36 | 37.22950 | 27.75559 | 1601 ft | 158 kts | 287° |
| 2026-05-08 23:36 | 37.23268 | 27.74235 | 1334 ft | 159 kts | 287° |
| 2026-05-08 23:36 | 37.23587 | 27.72904 | 1060 ft | 159 kts | 287° |
| 2026-05-08 23:37 | 37.23902 | 27.71573 | 788 ft | 158 kts | 286° |
| 2026-05-08 23:37 | 37.24209 | 27.70265 | 529 ft | 157 kts | 286° |
| 2026-05-08 23:37 | 37.24523 | 27.68944 | 247 ft | 157 kts | 286° |
| 2026-05-08 23:37 | 37.24851 | 27.67631 | 38 ft | 155 kts | 286° |
| 2026-05-08 23:38 | 37.25095 | 27.66603 | 30 ft | 82 kts | 287° |
| 2026-05-08 23:38 | 37.25192 | 27.66190 | 30 ft | 39 kts | 286° |
| 2026-05-08 23:38 | 37.25247 | 27.65961 | 30 ft | 23 kts | 285° |
| 2026-05-08 23:38 | 37.25249 | 27.65779 | 29 ft | 19 kts | 266° |
| 2026-05-08 23:39 | 37.25230 | 27.65650 | 29 ft | 14 kts | 258° |
| 2026-05-08 23:39 | 37.25162 | 27.65613 | 30 ft | 14 kts | 134° |
| 2026-05-08 23:39 | 37.25127 | 27.65739 | 30 ft | 17 kts | 107° |
| 2026-05-08 23:39 | 37.25091 | 27.65891 | 31 ft | 19 kts | 106° |
| 2026-05-08 23:40 | 37.25024 | 27.65957 | 31 ft | 14 kts | 196° |
| 2026-05-08 23:40 | 37.24930 | 27.65942 | 31 ft | 11 kts | 141° |
| 2026-05-08 23:40 | 37.24903 | 27.66047 | 31 ft | 14 kts | 107° |
| 2026-05-08 23:40 | 37.24871 | 27.66176 | 30 ft | 17 kts | 107° |
| 2026-05-08 23:41 | 37.24834 | 27.66329 | 30 ft | 20 kts | 107° |
| 2026-05-08 23:41 | 37.24795 | 27.66481 | 30 ft | 16 kts | 117° |
| 2026-05-08 23:41 | 37.24747 | 27.66616 | 30 ft | 18 kts | 106° |
| 2026-05-08 23:41 | 37.24708 | 27.66781 | 30 ft | 21 kts | 106° |
| 2026-05-08 23:42 | 37.24675 | 27.66921 | 30 ft | 15 kts | 107° |
| 2026-05-08 23:42 | 37.24642 | 27.67059 | 30 ft | 18 kts | 107° |
| 2026-05-08 23:42 | 37.24604 | 27.67216 | 31 ft | 20 kts | 107° |
| 2026-05-08 23:42 | 37.24562 | 27.67393 | 31 ft | 22 kts | 107° |
| 2026-05-08 23:43 | 37.24522 | 27.67560 | 31 ft | 17 kts | 107° |
| 2026-05-08 23:43 | 37.24488 | 27.67703 | 31 ft | 16 kts | 106° |
| 2026-05-08 23:43 | 37.24456 | 27.67788 | 31 ft | 8 kts | 157° |
| 2026-05-08 23:43 | 37.24403 | 27.67773 | 31 ft | 8 kts | 197° |
| 2026-05-08 23:44 | 37.24387 | 27.67767 | 31 ft | 0 kts | 197° |